Time;durP1;ratioP1;P1;durP2;ratioP2;P2;SDS_P1;SDS_P2;PMS_P1;PMS_P2;Temp;Humidity;BMP_temperature;BMP_pressure;BME280_temperature;BME280_humidity;BME280_pressure;Samples;Min_cycle;Max_cycle;Signal;HPM_P1;HPM_P2
2021/10/21 00:01:57;;;;;;;;;1.00;1.00;;;;;-142.59;100.00;56100.38;5053222;28;49640;-83
2021/10/21 00:04:24;;;;;;;;;3.00;1.50;;;;;-142.59;100.00;56100.38;5052869;28;49584;-82
2021/10/21 00:06:49;;;;;;;;;1.00;0.00;;;;;-142.59;100.00;56100.38;5052656;28;49586;-83
2021/10/21 00:09:15;;;;;;;;;2.00;1.00;;;;;-142.59;100.00;56100.38;5052993;28;49638;-77
2021/10/21 00:11:40;;;;;;;;;5.50;2.75;;;;;-142.59;100.00;56100.38;5052260;28;61239;-82
2021/10/21 00:14:05;;;;;;;;;1.00;1.00;;;;;-142.59;100.00;56100.38;5053092;28;49882;-78
2021/10/21 00:16:31;;;;;;;;;3.00;1.00;;;;;-142.59;100.00;56100.38;5051827;28;50214;-80
2021/10/21 00:18:57;;;;;;;;;0.25;0.25;;;;;-142.59;100.00;56100.38;5052159;28;49665;-80
2021/10/21 00:21:22;;;;;;;;;0.00;0.00;;;;;-142.59;100.00;56100.38;5052837;28;49631;-83
2021/10/21 00:23:48;;;;;;;;;2.00;1.00;;;;;-142.59;100.00;56100.38;5052746;28;49660;-84
2021/10/21 00:26:13;;;;;;;;;3.25;1.50;;;;;-142.59;100.00;56100.38;5052273;28;50724;-80
2021/10/21 00:28:39;;;;;;;;;3.00;1.00;;;;;-142.59;100.00;56100.38;5051887;28;67342;-79
2021/10/21 00:31:04;;;;;;;;;0.00;0.00;;;;;-142.59;100.00;56100.38;5052657;28;49698;-82
2021/10/21 00:33:30;;;;;;;;;1.00;0.00;;;;;-142.59;100.00;56100.38;5052540;28;49843;-85
2021/10/21 00:35:55;;;;;;;;;0.00;0.00;;;;;-142.59;100.00;56100.38;5052337;28;50680;-83
2021/10/21 00:38:21;;;;;;;;;2.50;0.00;;;;;-142.59;100.00;56100.38;5050830;28;63483;-82
2021/10/21 00:40:46;;;;;;;;;0.50;0.25;;;;;-142.59;100.00;56100.38;5052001;28;66469;-82
2021/10/21 00:43:12;;;;;;;;;2.00;0.25;;;;;-142.59;100.00;56100.38;5053523;28;49834;-80
2021/10/21 00:45:37;;;;;;;;;3.00;0.00;;;;;-142.59;100.00;56100.38;5052690;28;72521;-81
2021/10/21 00:48:03;;;;;;;;;0.00;0.00;;;;;-142.59;100.00;56100.38;5052670;28;49668;-83
2021/10/21 00:50:29;;;;;;;;;0.00;0.00;;;;;-142.59;100.00;56100.38;5051132;28;49770;-82
2021/10/21 00:52:55;;;;;;;;;1.50;0.00;;;;;-142.59;100.00;56100.38;5052251;28;49875;-81
2021/10/21 00:55:21;;;;;;;;;0.00;0.00;;;;;-142.59;100.00;56100.38;5033766;28;50318;-80
2021/10/21 00:57:47;;;;;;;;;0.00;0.00;;;;;-142.59;100.00;56100.38;5052078;28;49609;-79
2021/10/21 01:00:12;;;;;;;;;3.25;0.00;;;;;-142.59;100.00;56100.38;5052375;28;49756;-81
2021/10/21 01:02:38;;;;;;;;;1.00;0.00;;;;;-142.59;100.00;56100.38;5052204;28;49948;-80
2021/10/21 01:05:04;;;;;;;;;0.00;0.00;;;;;-142.59;100.00;56100.38;5051666;28;49846;-79
2021/10/21 01:07:29;;;;;;;;;0.00;0.00;;;;;-142.59;100.00;56100.38;5050712;28;49839;-76
2021/10/21 01:09:55;;;;;;;;;3.00;0.25;;;;;-142.59;100.00;56100.38;5051938;28;49933;-77
2021/10/21 01:12:23;;;;;;;;;0.00;0.00;;;;;-142.59;100.00;56100.38;5052205;28;49847;-77
2021/10/21 01:14:49;;;;;;;;;0.50;0.00;;;;;-142.59;100.00;56100.38;5051548;28;50775;-77
2021/10/21 01:17:17;;;;;;;;;2.00;0.00;;;;;-142.59;100.00;56100.38;5051534;28;49653;-77
2021/10/21 01:19:43;;;;;;;;;0.00;0.00;;;;;-142.59;100.00;56100.38;5051506;28;49961;-77
2021/10/21 01:22:08;;;;;;;;;0.75;0.00;;;;;-142.59;100.00;56100.38;5051953;28;49710;-77
2021/10/21 01:24:34;;;;;;;;;0.00;0.00;;;;;-142.59;100.00;56100.38;5049993;28;51111;-77
2021/10/21 01:26:59;;;;;;;;;0.00;0.00;;;;;-142.59;100.00;56100.38;5050952;28;49657;-77
2021/10/21 01:29:25;;;;;;;;;1.00;1.00;;;;;-142.59;100.00;56100.38;5051471;28;49747;-77
2021/10/21 01:31:51;;;;;;;;;0.00;0.00;;;;;-142.59;100.00;56100.38;5051921;28;49753;-78
2021/10/21 01:34:17;;;;;;;;;3.00;1.25;;;;;-142.59;100.00;56100.38;5050923;28;51001;-77
2021/10/21 01:36:44;;;;;;;;;0.00;0.00;;;;;-142.59;100.00;56100.38;5051138;28;49850;-77
2021/10/21 01:39:10;;;;;;;;;0.00;0.00;;;;;-142.59;100.00;56100.38;5051549;28;49561;-77
2021/10/21 01:41:36;;;;;;;;;1.00;0.50;;;;;-142.59;100.00;56100.38;5051717;28;49748;-79
2021/10/21 01:44:04;;;;;;;;;0.00;0.00;;;;;-142.59;100.00;56100.38;5051159;28;49708;-77
2021/10/21 01:46:30;;;;;;;;;0.00;0.00;;;;;-142.59;100.00;56100.38;5051267;28;49725;-78
2021/10/21 01:48:55;;;;;;;;;0.50;0.50;;;;;-142.59;100.00;56100.38;5049789;28;49643;-77
2021/10/21 01:51:21;;;;;;;;;1.00;0.00;;;;;-142.59;100.00;56100.38;5050506;28;60593;-77
2021/10/21 01:53:46;;;;;;;;;0.00;0.00;;;;;-142.59;100.00;56100.38;5049647;28;49983;-74
2021/10/21 01:56:12;;;;;;;;;0.00;0.00;;;;;-142.59;100.00;56100.38;5050698;28;64989;-76
2021/10/21 01:58:37;;;;;;;;;1.25;0.75;;;;;-142.59;100.00;56100.38;5051068;28;49755;-77
2021/10/21 02:01:03;;;;;;;;;0.00;0.00;;;;;-142.59;100.00;56100.38;5050895;28;55408;-77
2021/10/21 02:03:28;;;;;;;;;1.00;1.00;;;;;-142.59;100.00;56100.38;5048662;28;70395;-76
2021/10/21 02:05:54;;;;;;;;;0.00;0.00;;;;;-142.59;100.00;56100.38;5066659;28;49662;-78
2021/10/21 02:08:19;;;;;;;;;0.00;0.00;;;;;-142.59;100.00;56100.38;5050955;28;49590;-78
2021/10/21 02:10:45;;;;;;;;;0.00;0.00;;;;;-142.59;100.00;56100.38;5051021;28;49728;-79
2021/10/21 02:13:10;;;;;;;;;0.00;0.00;;;;;-142.59;100.00;56100.38;5050636;28;55818;-78
2021/10/21 02:15:35;;;;;;;;;1.00;0.00;;;;;-142.59;100.00;56100.38;5050921;28;49586;-77
2021/10/21 02:18:01;;;;;;;;;0.00;0.00;;;;;-142.59;100.00;56100.38;5049462;28;49727;-77
2021/10/21 02:20:27;;;;;;;;;0.00;0.00;;;;;-142.59;100.00;56100.38;5050415;28;58657;-77
2021/10/21 02:22:53;;;;;;;;;0.00;0.00;;;;;-142.59;100.00;56100.38;5050382;28;50407;-77
2021/10/21 02:25:21;;;;;;;;;0.00;0.00;;;;;-142.59;100.00;56100.38;5050846;28;49929;-77
2021/10/21 02:27:47;;;;;;;;;0.00;0.00;;;;;-142.59;100.00;56100.38;5049502;28;49942;-77
2021/10/21 02:30:12;;;;;;;;;0.75;0.00;;;;;-142.59;100.00;56100.38;5050545;28;55807;-76
2021/10/21 02:32:38;;;;;;;;;0.00;0.00;;;;;-142.59;100.00;56100.38;5050593;28;50466;-77
2021/10/21 02:35:04;;;;;;;;;0.00;0.00;;;;;-142.59;100.00;56100.38;5050628;28;49814;-77
2021/10/21 02:37:30;;;;;;;;;0.00;0.00;;;;;-142.59;100.00;56100.38;5050521;28;49926;-77
2021/10/21 02:39:55;;;;;;;;;0.50;0.00;;;;;-142.59;100.00;56100.38;5051755;28;49875;-76
2021/10/21 02:42:20;;;;;;;;;0.00;0.00;;;;;-142.59;100.00;56100.38;5054043;28;51027;-77
2021/10/21 02:44:46;;;;;;;;;0.00;0.00;;;;;-142.59;100.00;56100.38;5053316;28;70854;-77
2021/10/21 02:47:11;;;;;;;;;0.00;0.00;;;;;-142.59;100.00;56100.38;5053097;28;49636;-77
2021/10/21 02:49:37;;;;;;;;;0.00;0.00;;;;;-142.59;100.00;56100.38;5054211;28;49828;-78
2021/10/21 02:52:02;;;;;;;;;0.00;0.00;;;;;-142.59;100.00;56100.38;5053325;28;66269;-77
2021/10/21 02:54:28;;;;;;;;;0.00;0.00;;;;;-142.59;100.00;56100.38;5054131;28;49841;-77
2021/10/21 02:56:53;;;;;;;;;0.00;0.00;;;;;-142.59;100.00;56100.38;5054119;28;49790;-77
2021/10/21 02:59:19;;;;;;;;;0.00;0.00;;;;;-142.59;100.00;56100.38;5054220;28;50053;-78
2021/10/21 03:01:44;;;;;;;;;1.00;0.00;;;;;-142.59;100.00;56100.38;5053330;28;64119;-77
2021/10/21 03:04:10;;;;;;;;;0.00;0.00;;;;;-142.59;100.00;56100.38;5053746;28;50102;-78
2021/10/21 03:06:35;;;;;;;;;0.00;0.00;;;;;-142.59;100.00;56100.38;5053090;28;65135;-76
2021/10/21 03:09:00;;;;;;;;;0.00;0.00;;;;;-142.59;100.00;56100.38;5052470;28;49629;-77
2021/10/21 03:11:26;;;;;;;;;1.00;0.00;;;;;-142.59;100.00;56100.38;5053331;28;64110;-77
2021/10/21 03:13:51;;;;;;;;;0.25;0.25;;;;;-142.59;100.00;56100.38;5053697;28;49769;-76
2021/10/21 03:16:17;;;;;;;;;1.00;0.00;;;;;-142.59;100.00;56100.38;5053195;28;64766;-77
2021/10/21 03:18:42;;;;;;;;;0.50;0.50;;;;;-142.59;100.00;56100.38;5053188;28;50101;-76
2021/10/21 03:21:08;;;;;;;;;1.75;0.00;;;;;-142.59;100.00;56100.38;5052529;28;69744;-78
2021/10/21 03:23:33;;;;;;;;;1.00;0.00;;;;;-142.59;100.00;56100.38;5052040;28;49744;-77
2021/10/21 03:25:59;;;;;;;;;3.00;0.00;;;;;-142.59;100.00;56100.38;5052985;28;60371;-79
2021/10/21 03:28:24;;;;;;;;;1.00;0.50;;;;;-142.59;100.00;56100.38;5053809;28;49899;-77
2021/10/21 03:30:49;;;;;;;;;0.75;0.75;;;;;-142.59;100.00;56100.38;5052336;28;76255;-76
2021/10/21 03:33:15;;;;;;;;;0.00;0.00;;;;;-142.59;100.00;56100.38;5053241;28;49859;-76
2021/10/21 03:35:40;;;;;;;;;2.00;0.00;;;;;-142.59;100.00;56100.38;5052533;28;66174;-79
2021/10/21 03:38:06;;;;;;;;;1.00;0.00;;;;;-142.59;100.00;56100.38;5052093;28;49818;-75
2021/10/21 03:40:32;;;;;;;;;1.00;1.00;;;;;-142.59;100.00;56100.38;5052981;28;49775;-77
2021/10/21 03:42:57;;;;;;;;;0.25;0.25;;;;;-142.59;100.00;56100.38;5053215;28;49854;-79
2021/10/21 03:45:22;;;;;;;;;1.75;0.00;;;;;-142.59;100.00;56100.38;5053328;28;49667;-76
2021/10/21 03:47:48;;;;;;;;;1.00;1.00;;;;;-142.59;100.00;56100.38;5052813;28;56879;-78
2021/10/21 03:50:13;;;;;;;;;0.00;0.00;;;;;-142.59;100.00;56100.38;5051904;28;49943;-79
2021/10/21 03:52:39;;;;;;;;;0.00;0.00;;;;;-142.59;100.00;56100.38;5050937;28;63039;-76
2021/10/21 03:55:05;;;;;;;;;0.00;0.00;;;;;-142.59;100.00;56100.38;5052997;28;49820;-76
2021/10/21 03:57:30;;;;;;;;;0.00;0.00;;;;;-142.59;100.00;56100.38;5052921;28;49958;-75
2021/10/21 03:59:56;;;;;;;;;0.00;0.00;;;;;-142.59;100.00;56100.38;5052768;28;50318;-76
2021/10/21 04:02:21;;;;;;;;;0.25;0.00;;;;;-142.59;100.00;56100.38;5051802;28;49715;-76
2021/10/21 04:04:47;;;;;;;;;0.00;0.00;;;;;-142.59;100.00;56100.38;5052039;28;62101;-76
2021/10/21 04:07:12;;;;;;;;;1.75;1.75;;;;;-142.59;100.00;56100.38;5051718;28;50022;-76
2021/10/21 04:09:38;;;;;;;;;0.25;0.25;;;;;-142.59;100.00;56100.38;5052846;28;49855;-77
2021/10/21 04:12:04;;;;;;;;;2.00;0.00;;;;;-142.59;100.00;56100.38;5052824;28;49784;-76
2021/10/21 04:14:29;;;;;;;;;2.00;0.75;;;;;-142.59;100.00;56100.38;5051414;28;49699;-79
2021/10/21 04:16:55;;;;;;;;;0.00;0.00;;;;;-142.59;100.00;56100.38;5052890;28;50218;-76
2021/10/21 04:19:20;;;;;;;;;0.00;0.00;;;;;-142.59;100.00;56100.38;5051442;28;61348;-76
2021/10/21 04:21:46;;;;;;;;;2.75;1.00;;;;;-142.59;100.00;56100.38;5052668;28;50015;-76
2021/10/21 04:24:11;;;;;;;;;1.00;1.00;;;;;-142.59;100.00;56100.38;5050972;28;56150;-76
2021/10/21 04:26:37;;;;;;;;;0.00;0.00;;;;;-142.59;100.00;56100.38;5051993;28;64508;-80
2021/10/21 04:29:02;;;;;;;;;1.00;1.00;;;;;-142.59;100.00;56100.38;5052506;28;50441;-80
2021/10/21 04:31:30;;;;;;;;;0.75;0.00;;;;;-142.59;100.00;56100.38;5051777;28;64102;-78
2021/10/21 04:33:55;;;;;;;;;0.00;0.00;;;;;-142.59;100.00;56100.38;5051003;28;49653;-79
2021/10/21 04:36:21;;;;;;;;;0.25;0.00;;;;;-142.59;100.00;56100.38;5051285;28;49782;-78
2021/10/21 04:38:46;;;;;;;;;0.50;0.00;;;;;-142.59;100.00;56100.38;5052016;28;50794;-79
2021/10/21 04:41:12;;;;;;;;;4.25;1.00;;;;;-142.59;100.00;56100.38;5052369;28;49778;-76
2021/10/21 04:43:37;;;;;;;;;1.75;0.00;;;;;-142.59;100.00;56100.38;5051539;28;69160;-78
2021/10/21 04:46:03;;;;;;;;;1.50;0.00;;;;;-142.59;100.00;56100.38;5052454;28;49872;-77
2021/10/21 04:48:28;;;;;;;;;0.50;0.00;;;;;-142.59;100.00;56100.38;5051127;28;72215;-79
2021/10/21 04:50:54;;;;;;;;;2.25;1.50;;;;;-142.59;100.00;56100.38;5052266;28;49714;-75
2021/10/21 04:53:19;;;;;;;;;1.25;1.25;;;;;-142.59;100.00;56100.38;5051667;28;60372;-79
2021/10/21 04:55:44;;;;;;;;;2.00;0.50;;;;;-142.59;100.00;56100.38;5052446;28;49561;-76
2021/10/21 04:58:10;;;;;;;;;0.00;0.00;;;;;-142.59;100.00;56100.38;5051957;28;49639;-78
2021/10/21 05:00:36;;;;;;;;;0.00;0.00;;;;;-142.59;100.00;56100.38;5050909;28;49869;-78
2021/10/21 05:03:14;;;;;;;;;0.00;0.00;;;;;-142.59;100.00;56100.38;5051758;28;49868;-77
2021/10/21 05:05:40;;;;;;;;;1.00;1.00;;;;;-142.59;100.00;56100.38;5052084;28;49946;-77
2021/10/21 05:08:06;;;;;;;;;2.75;2.75;;;;;-142.59;100.00;56100.38;5051748;28;50053;-77
2021/10/21 05:10:31;;;;;;;;;1.25;1.25;;;;;-142.59;100.00;56100.38;5051850;28;49799;-80
2021/10/21 05:12:57;;;;;;;;;1.00;1.00;;;;;-142.59;100.00;56100.38;5051703;28;50195;-77
2021/10/21 05:15:23;;;;;;;;;2.00;0.50;;;;;-142.59;100.00;56100.38;5051489;28;55879;-75
2021/10/21 05:17:49;;;;;;;;;0.00;0.00;;;;;-142.59;100.00;56100.38;5051435;28;49837;-76
2021/10/21 05:20:14;;;;;;;;;1.00;1.00;;;;;-142.59;100.00;56100.38;5051470;28;49684;-77
2021/10/21 05:22:39;;;;;;;;;0.00;0.00;;;;;-142.59;100.00;56100.38;5051159;28;64722;-79
2021/10/21 05:25:05;;;;;;;;;0.00;0.00;;;;;-142.59;100.00;56100.38;5050051;28;61876;-80
2021/10/21 05:27:31;;;;;;;;;1.75;0.50;;;;;-142.59;100.00;56100.38;5051310;28;51114;-79
2021/10/21 05:29:57;;;;;;;;;0.00;0.00;;;;;-142.59;100.00;56100.38;5051574;28;49719;-79
2021/10/21 05:32:22;;;;;;;;;0.75;0.75;;;;;-142.59;100.00;56100.38;5050286;28;49993;-80
2021/10/21 05:34:48;;;;;;;;;2.00;0.00;;;;;-142.59;100.00;56100.38;5050342;28;49789;-77
2021/10/21 05:37:13;;;;;;;;;1.00;1.00;;;;;-142.59;100.00;56100.38;5051177;28;49925;-78
2021/10/21 05:39:38;;;;;;;;;1.75;1.00;;;;;-142.59;100.00;56100.38;5051426;28;49704;-77
2021/10/21 05:42:04;;;;;;;;;2.25;1.25;;;;;-142.59;100.00;56100.38;5050828;28;67888;-78
2021/10/21 05:44:29;;;;;;;;;1.00;1.00;;;;;-142.59;100.00;56100.38;5051255;28;49741;-76
2021/10/21 05:46:55;;;;;;;;;2.75;0.00;;;;;-142.59;100.00;56100.38;5051088;28;50316;-78
2021/10/21 05:49:20;;;;;;;;;3.00;1.25;;;;;-142.59;100.00;56100.38;5051148;28;49665;-69
2021/10/21 05:51:46;;;;;;;;;0.25;0.25;;;;;-142.59;100.00;56100.38;5050524;28;67817;-69
2021/10/21 05:54:11;;;;;;;;;3.00;1.25;;;;;-142.59;100.00;56100.38;5051966;28;49819;-69
2021/10/21 05:56:37;;;;;;;;;2.25;0.50;;;;;-142.59;100.00;56100.38;5053224;28;49667;-67
2021/10/21 05:59:02;;;;;;;;;1.00;1.00;;;;;-142.59;100.00;56100.38;5051142;28;49815;-70
2021/10/21 06:01:28;;;;;;;;;1.00;1.00;;;;;-142.59;100.00;56100.38;5050782;28;57836;-68
2021/10/21 06:03:53;;;;;;;;;0.25;0.00;;;;;-142.59;100.00;56100.38;5051196;28;49754;-71
2021/10/21 06:06:18;;;;;;;;;1.00;1.00;;;;;-142.59;100.00;56100.38;5050317;28;74017;-68
2021/10/21 06:08:45;;;;;;;;;1.25;0.50;;;;;-142.59;100.00;56100.38;5050968;28;52950;-69
2021/10/21 06:11:11;;;;;;;;;4.50;1.00;;;;;-142.59;100.00;56100.38;5051071;28;49706;-70
2021/10/21 06:13:36;;;;;;;;;2.50;2.25;;;;;-142.59;100.00;56100.38;5050045;28;49977;-73
2021/10/21 06:16:02;;;;;;;;;2.00;2.00;;;;;-142.59;100.00;56100.38;5053131;28;50830;-73
2021/10/21 06:18:28;;;;;;;;;1.00;1.00;;;;;-142.59;100.00;56100.38;5054209;28;49810;-68
2021/10/21 06:20:53;;;;;;;;;1.25;1.25;;;;;-142.59;100.00;56100.38;5053292;28;49694;-68
2021/10/21 06:23:19;;;;;;;;;0.00;0.00;;;;;-142.59;100.00;56100.38;5054885;28;49688;-74
2021/10/21 06:25:45;;;;;;;;;2.75;2.00;;;;;-142.59;100.00;56100.38;5054117;28;50544;-76
2021/10/21 06:28:11;;;;;;;;;2.25;1.50;;;;;-142.59;100.00;56100.38;5054256;28;49701;-75
2021/10/21 06:30:36;;;;;;;;;2.75;1.00;;;;;-142.59;100.00;56100.38;5053912;28;60842;-78
2021/10/21 06:33:03;;;;;;;;;1.00;1.00;;;;;-142.59;100.00;56100.38;5054328;28;49883;-77
2021/10/21 06:35:28;;;;;;;;;2.75;1.00;;;;;-142.59;100.00;56100.38;5053087;28;50751;-72
2021/10/21 06:37:54;;;;;;;;;2.50;2.50;;;;;-142.59;100.00;56100.38;5052768;28;49815;-83
2021/10/21 06:40:19;;;;;;;;;4.75;1.00;;;;;-142.59;100.00;56100.38;5053573;28;49776;-81
2021/10/21 06:42:45;;;;;;;;;4.00;1.00;;;;;-142.59;100.00;56100.38;5053005;28;49766;-78
2021/10/21 06:45:11;;;;;;;;;2.00;2.00;;;;;-142.59;100.00;56100.38;5050897;28;50917;-78
2021/10/21 06:47:40;;;;;;;;;1.75;0.75;;;;;-142.59;100.00;56100.38;5053128;28;49776;-81
2021/10/21 06:50:09;;;;;;;;;1.00;1.00;;;;;-142.59;100.00;56100.38;5051582;28;49672;-78
2021/10/21 06:52:34;;;;;;;;;1.00;1.00;;;;;-142.59;100.00;56100.38;5052665;28;49817;-73
2021/10/21 06:55:00;;;;;;;;;1.00;1.00;;;;;-142.59;100.00;56100.38;5038578;28;73709;-69
2021/10/21 06:57:25;;;;;;;;;4.00;2.00;;;;;-142.59;100.00;56100.38;5050826;28;49774;-69
2021/10/21 06:59:50;;;;;;;;;1.00;1.00;;;;;-142.59;100.00;56100.38;5050223;28;65335;-69
2021/10/21 07:02:16;;;;;;;;;2.25;1.00;;;;;-142.59;100.00;56100.38;5050883;28;51673;-69
2021/10/21 07:04:41;;;;;;;;;3.00;2.25;;;;;-142.59;100.00;56100.38;5051277;28;49692;-70
2021/10/21 07:07:07;;;;;;;;;9.25;2.75;;;;;-142.59;100.00;56100.38;5051622;28;49063;-74
2021/10/21 07:09:32;;;;;;;;;3.00;2.00;;;;;-142.59;100.00;56100.38;5051840;28;49774;-69
2021/10/21 07:11:58;;;;;;;;;1.75;0.75;;;;;-142.59;100.00;56100.38;5049964;28;49836;-71
2021/10/21 07:14:24;;;;;;;;;1.50;1.25;;;;;-142.59;100.00;56100.38;5050686;28;50677;-72
2021/10/21 07:16:49;;;;;;;;;3.00;1.25;;;;;-142.59;100.00;56100.38;5051709;28;50092;-70
2021/10/21 07:19:14;;;;;;;;;3.50;2.75;;;;;-142.59;100.00;56100.38;5050294;28;49928;-71
2021/10/21 07:21:40;;;;;;;;;3.00;2.75;;;;;-142.59;100.00;56100.38;5050540;28;52233;-70
2021/10/21 07:24:06;;;;;;;;;2.25;2.00;;;;;-142.59;100.00;56100.38;5050846;28;51066;-73
2021/10/21 07:26:33;;;;;;;;;1.75;0.50;;;;;-142.59;100.00;56100.38;5052929;28;49650;-73
2021/10/21 07:28:58;;;;;;;;;3.25;1.75;;;;;-142.59;100.00;56100.38;5051948;28;49805;-72
2021/10/21 07:31:25;;;;;;;;;3.50;1.25;;;;;-142.59;100.00;56100.38;5052675;28;52873;-71
2021/10/21 07:33:51;;;;;;;;;2.75;2.00;;;;;-142.59;100.00;56100.38;5051624;28;49697;-71
2021/10/21 07:36:17;;;;;;;;;1.50;1.50;;;;;-142.59;100.00;56100.38;5052125;28;62649;-73
2021/10/21 07:38:42;;;;;;;;;2.25;1.50;;;;;-142.59;100.00;56100.38;5051536;28;49679;-73
2021/10/21 07:41:08;;;;;;;;;2.00;2.00;;;;;-142.59;100.00;56100.38;5054895;28;50107;-72
2021/10/21 07:43:35;;;;;;;;;0.50;0.50;;;;;-142.59;100.00;56100.38;5034827;28;50113;-72
2021/10/21 07:46:00;;;;;;;;;3.75;3.00;;;;;-142.59;100.00;56100.38;5052640;28;50075;-71
2021/10/21 07:48:25;;;;;;;;;2.00;1.00;;;;;-142.59;100.00;56100.38;5051478;28;65216;-74
2021/10/21 07:50:51;;;;;;;;;1.50;1.50;;;;;-142.59;100.00;56100.38;5051684;28;56164;-72
2021/10/21 07:53:16;;;;;;;;;2.00;2.00;;;;;-142.59;100.00;56100.38;5051593;28;49760;-80
2021/10/21 07:55:42;;;;;;;;;1.75;1.00;;;;;-142.59;100.00;56100.38;5051914;28;49884;-71
2021/10/21 07:58:07;;;;;;;;;1.75;1.75;;;;;-142.59;100.00;56100.38;5051269;28;64083;-82
2021/10/21 08:00:32;;;;;;;;;3.75;2.00;;;;;-142.59;100.00;56100.38;5052563;28;49909;-73
2021/10/21 08:02:59;;;;;;;;;4.00;3.00;;;;;-142.59;100.00;56100.38;5050399;28;72024;-71
2021/10/21 08:05:24;;;;;;;;;4.00;4.00;;;;;-142.59;100.00;56100.38;5052775;28;49648;-77
2021/10/21 08:07:50;;;;;;;;;3.25;3.25;;;;;-142.59;100.00;56100.38;5051376;28;49530;-71
2021/10/21 08:10:16;;;;;;;;;1.25;0.00;;;;;-142.59;100.00;56100.38;5052926;28;50113;-71
2021/10/21 08:12:42;;;;;;;;;4.75;1.25;;;;;-142.59;100.00;56100.38;5051871;28;50492;-70
2021/10/21 08:15:08;;;;;;;;;3.50;2.00;;;;;-142.59;100.00;56100.38;5033637;28;49622;-70
2021/10/21 08:17:33;;;;;;;;;6.00;3.00;;;;;-142.59;100.00;56100.38;5052034;28;49718;-70
2021/10/21 08:19:59;;;;;;;;;5.25;2.50;;;;;-142.59;100.00;56100.38;5051412;28;49726;-70
2021/10/21 08:22:25;;;;;;;;;4.00;3.00;;;;;-142.59;100.00;56100.38;5051649;28;49849;-72
2021/10/21 08:24:50;;;;;;;;;5.25;1.75;;;;;-142.59;100.00;56100.38;5052209;28;50516;-70
2021/10/21 08:27:16;;;;;;;;;7.75;2.25;;;;;-142.59;100.00;56100.38;5052070;28;57311;-70
2021/10/21 08:29:41;;;;;;;;;2.75;2.00;;;;;-142.59;100.00;56100.38;5054809;28;49727;-67
2021/10/21 08:32:11;;;;;;;;;4.25;2.00;;;;;-142.59;100.00;56100.38;5055932;28;50458;-66
2021/10/21 08:34:36;;;;;;;;;4.25;2.00;;;;;-142.59;100.00;56100.38;5056252;28;49637;-66
2021/10/21 08:37:02;;;;;;;;;3.50;3.00;;;;;-142.59;100.00;56100.38;5053670;28;54270;-67
2021/10/21 08:39:27;;;;;;;;;2.25;2.25;;;;;-142.59;100.00;56100.38;5023485;28;49864;-65
2021/10/21 08:41:53;;;;;;;;;1.00;1.00;;;;;-142.59;100.00;56100.38;5056752;28;61579;-67
2021/10/21 08:44:18;;;;;;;;;4.75;0.75;;;;;-142.59;100.00;56100.38;5055954;28;67872;-69
2021/10/21 08:46:45;;;;;;;;;5.00;2.00;;;;;-142.59;100.00;56100.38;5053941;28;49719;-67
2021/10/21 08:49:11;;;;;;;;;3.00;1.50;;;;;-142.59;100.00;56100.38;5039140;28;49669;-69
2021/10/21 08:51:36;;;;;;;;;1.50;0.75;;;;;-142.59;100.00;56100.38;5040699;28;53371;-68
2021/10/21 08:54:03;;;;;;;;;1.75;1.00;;;;;-142.59;100.00;56100.38;5034250;28;49858;-80
2021/10/21 08:56:28;;;;;;;;;4.50;1.00;;;;;-142.59;100.00;56100.38;5019732;28;49970;-78
2021/10/21 08:58:54;;;;;;;;;3.25;1.25;;;;;-142.59;100.00;56100.38;5019918;28;49955;-80
2021/10/21 09:01:23;;;;;;;;;2.75;1.00;;;;;-142.59;100.00;56100.38;5054801;28;49643;-79
2021/10/21 09:06:48;;;;;;;;;3.25;2.25;;;;;-142.59;100.00;56100.38;5054706;28;49902;-78
2021/10/21 09:09:23;;;;;;;;;3.50;1.25;;;;;-142.59;100.00;56100.38;5055550;28;49943;-77
2021/10/21 09:12:17;;;;;;;;;3.00;2.50;;;;;-142.59;100.00;56100.38;5052291;28;50582;-76
2021/10/21 09:14:47;;;;;;;;;2.50;2.00;;;;;-142.59;100.00;56100.38;5051494;28;49962;-78
2021/10/21 09:17:14;;;;;;;;;2.00;1.00;;;;;-142.59;100.00;56100.38;5051659;28;49731;-74
2021/10/21 09:19:40;;;;;;;;;5.25;1.75;;;;;-142.59;100.00;56100.38;5030278;28;49861;-73
2021/10/21 09:22:07;;;;;;;;;4.00;3.00;;;;;-142.59;100.00;56100.38;5048339;28;50493;-74
2021/10/21 09:24:43;;;;;;;;;1.75;1.75;;;;;-142.59;100.00;56100.38;5032256;28;49800;-76
2021/10/21 09:27:18;;;;;;;;;2.00;2.00;;;;;-142.59;100.00;56100.38;5031520;28;50005;-76
2021/10/21 09:29:45;;;;;;;;;1.25;1.25;;;;;-142.59;100.00;56100.38;5048021;28;50090;-75
2021/10/21 09:32:19;;;;;;;;;5.00;3.00;;;;;-142.59;100.00;56100.38;5031121;28;50598;-74
2021/10/21 09:35:04;;;;;;;;;0.00;0.00;;;;;-142.59;100.00;56100.38;5031353;28;49711;-80
2021/10/21 09:37:31;;;;;;;;;1.75;1.75;;;;;-142.59;100.00;56100.38;5031666;28;49700;-76
2021/10/21 09:40:06;;;;;;;;;2.25;1.25;;;;;-142.59;100.00;56100.38;5035143;28;49807;-74
2021/10/21 09:42:33;;;;;;;;;2.00;1.00;;;;;-142.59;100.00;56100.38;5032091;28;50615;-80
2021/10/21 09:45:18;;;;;;;;;1.75;0.00;;;;;-142.59;100.00;56100.38;5030192;28;49641;-73
2021/10/21 09:47:45;;;;;;;;;2.00;1.00;;;;;-142.59;100.00;56100.38;5030598;28;49877;-70
2021/10/21 09:50:19;;;;;;;;;3.25;1.00;;;;;-142.59;100.00;56100.38;5028896;28;49846;-71
2021/10/21 09:53:19;;;;;;;;;1.50;1.00;;;;;-142.59;100.00;56100.38;5031019;28;50842;-71
2021/10/21 09:56:00;;;;;;;;;6.75;2.75;;;;;-142.59;100.00;56100.38;5030864;28;49684;-72
2021/10/21 09:58:26;;;;;;;;;3.75;1.75;;;;;-142.59;100.00;56100.38;5029566;28;49727;-71
2021/10/21 10:01:03;;;;;;;;;4.00;0.00;;;;;-142.59;100.00;56100.38;5030663;28;49758;-71
2021/10/21 10:03:32;;;;;;;;;8.50;6.25;;;;;-142.59;100.00;56100.38;5028457;28;50434;-71
2021/10/21 10:05:58;;;;;;;;;4.25;3.50;;;;;-142.59;100.00;56100.38;5029965;28;49732;-72
2021/10/21 10:08:24;;;;;;;;;0.50;0.50;;;;;-142.59;100.00;56100.38;5030717;28;49956;-74
2021/10/21 10:10:51;;;;;;;;;0.25;0.00;;;;;-142.59;100.00;56100.38;5030182;28;49684;-71
2021/10/21 10:13:17;;;;;;;;;10.00;8.75;;;;;-142.59;100.00;56100.38;5029906;28;49804;-71
2021/10/21 10:15:44;;;;;;;;;12.75;8.75;;;;;-142.59;100.00;56100.38;5029813;28;49826;-71
2021/10/21 10:18:16;;;;;;;;;1.50;1.50;;;;;-142.59;100.00;56100.38;5034422;28;49817;-71
2021/10/21 10:20:43;;;;;;;;;1.00;1.00;;;;;-142.59;100.00;56100.38;5033557;28;49717;-72
2021/10/21 10:23:11;;;;;;;;;3.50;2.00;;;;;-142.59;100.00;56100.38;5016143;28;49839;-71
2021/10/21 10:25:45;;;;;;;;;6.25;4.00;;;;;-142.59;100.00;56100.38;5016838;28;49741;-72
2021/10/21 10:28:10;;;;;;;;;6.50;6.00;;;;;-142.59;100.00;56100.38;5050621;28;49783;-72
2021/10/21 10:30:43;;;;;;;;;5.25;4.50;;;;;-142.59;100.00;56100.38;5032714;28;49966;-72
2021/10/21 10:33:08;;;;;;;;;7.25;4.00;;;;;-142.59;100.00;56100.38;5050165;28;50432;-72
2021/10/21 10:35:36;;;;;;;;;1.00;1.00;;;;;-142.59;100.00;56100.38;5050510;28;49779;-71
2021/10/21 10:38:02;;;;;;;;;3.25;1.00;;;;;-142.59;100.00;56100.38;5032581;28;49822;-71
2021/10/21 10:40:57;;;;;;;;;2.75;1.00;;;;;-142.59;100.00;56100.38;5050453;28;49669;-72
2021/10/21 10:43:37;;;;;;;;;2.50;0.50;;;;;-142.59;100.00;56100.38;5047812;28;50970;-72
2021/10/21 10:46:02;;;;;;;;;1.75;1.25;;;;;-142.59;100.00;56100.38;5050537;28;49773;-71
2021/10/21 10:48:48;;;;;;;;;1.25;1.25;;;;;-142.59;100.00;56100.38;5050194;28;49874;-71
2021/10/21 10:51:14;;;;;;;;;2.00;1.00;;;;;-142.59;100.00;56100.38;5032427;28;49776;-72
2021/10/21 10:53:47;;;;;;;;;3.25;2.25;;;;;-142.59;100.00;56100.38;5031134;28;73712;-72
2021/10/21 10:56:37;;;;;;;;;5.25;5.25;;;;;-142.59;100.00;56100.38;5032477;28;50437;-72
2021/10/21 10:59:22;;;;;;;;;2.75;2.75;;;;;-142.59;100.00;56100.38;5050303;28;49895;-73
2021/10/21 11:01:49;;;;;;;;;3.00;1.50;;;;;-142.59;100.00;56100.38;5053790;28;49922;-75
2021/10/21 11:04:55;;;;;;;;;1.00;1.00;;;;;-142.59;100.00;56100.38;5053388;28;49826;-75
2021/10/21 11:07:30;;;;;;;;;2.00;2.00;;;;;-142.59;100.00;56100.38;5053752;28;49734;-73
2021/10/21 11:10:23;;;;;;;;;0.50;0.50;;;;;-142.59;100.00;56100.38;5037066;28;49876;-74
2021/10/21 11:12:51;;;;;;;;;2.75;2.00;;;;;-142.59;100.00;56100.38;5053610;28;49775;-72